createdAt,value
2018-12-10T00:05:59.869Z,97.60
2018-12-10T00:16:04.099Z,97.70
2018-12-10T00:26:08.190Z,97.40
2018-12-10T00:36:12.310Z,97.20
2018-12-10T00:46:16.426Z,97.10
2018-12-10T00:56:20.492Z,97.00
2018-12-10T01:06:24.676Z,96.80
2018-12-10T01:16:28.964Z,97.00
2018-12-10T01:26:33.096Z,97.50
2018-12-10T01:36:37.176Z,97.40
2018-12-10T01:46:41.277Z,97.20
2018-12-10T01:56:45.378Z,96.70
2018-12-10T02:06:50.473Z,96.50
2018-12-10T02:16:54.530Z,96.50
2018-12-10T02:26:58.582Z,96.60
2018-12-10T02:37:02.690Z,97.10
2018-12-10T02:47:06.766Z,97.20
2018-12-10T02:57:10.911Z,97.60
2018-12-10T03:07:16.000Z,97.60
2018-12-10T03:17:20.084Z,97.70
2018-12-10T03:27:24.199Z,97.90
2018-12-10T03:37:28.350Z,98.60
2018-12-10T03:47:32.375Z,99.00
2018-12-10T03:57:36.515Z,99.40
2018-12-10T04:07:41.691Z,99.00
2018-12-10T04:17:45.858Z,98.70
2018-12-10T04:27:49.913Z,98.50
2018-12-10T04:37:54.992Z,98.50
2018-12-10T04:47:59.152Z,98.80
2018-12-10T04:58:03.237Z,98.60
2018-12-10T05:08:07.295Z,99.00
2018-12-10T05:18:11.335Z,98.70
2018-12-10T05:28:16.432Z,98.70
2018-12-10T05:38:20.532Z,98.90
2018-12-10T05:48:24.631Z,98.70
2018-12-10T05:58:28.911Z,98.60
2018-12-10T06:08:33.129Z,98.90
2018-12-10T06:18:37.313Z,98.60
2018-12-10T06:28:41.580Z,97.70
2018-12-10T06:38:45.795Z,97.90
2018-12-10T06:48:50.010Z,98.40
2018-12-10T06:58:54.143Z,98.00
2018-12-10T07:08:58.282Z,97.80
2018-12-10T07:19:02.489Z,98.10
2018-12-10T07:29:06.699Z,98.50
2018-12-10T07:39:10.884Z,98.10
2018-12-10T07:49:15.040Z,98.00
2018-12-10T07:59:19.121Z,98.30
2018-12-10T08:09:23.232Z,98.10
2018-12-10T08:19:27.299Z,98.20
2018-12-10T08:29:31.392Z,97.50
2018-12-10T08:39:35.734Z,97.40
2018-12-10T08:49:39.910Z,98.10
2018-12-10T08:59:43.993Z,98.50
2018-12-10T09:09:48.346Z,98.30
2018-12-10T09:19:52.494Z,98.00
2018-12-10T09:29:56.678Z,97.50
2018-12-10T09:40:00.862Z,96.70
2018-12-10T09:50:05.245Z,96.20
2018-12-10T10:00:10.783Z,95.30
2018-12-10T10:10:14.890Z,95.00
2018-12-10T10:20:19.336Z,94.70
2018-12-10T10:30:23.493Z,94.70
2018-12-10T10:40:27.758Z,94.70
2018-12-10T10:50:32.903Z,94.60
2018-12-10T11:00:42.533Z,94.50
2018-12-10T11:10:46.717Z,94.10
2018-12-10T11:20:50.932Z,94.20
2018-12-10T11:30:55.063Z,93.80
2018-12-10T11:40:59.261Z,93.80
2018-12-10T11:51:03.438Z,93.70
2018-12-10T12:01:07.831Z,93.50
2018-12-10T12:11:12.365Z,93.20
2018-12-10T12:21:16.538Z,93.50
2018-12-10T12:31:20.714Z,93.10
2018-12-10T12:41:25.025Z,92.80
2018-12-10T12:51:29.214Z,92.60
2018-12-10T13:01:33.346Z,92.80
2018-12-10T13:11:37.676Z,92.80
2018-12-10T13:21:42.068Z,92.80
2018-12-10T13:31:46.304Z,92.40
2018-12-10T13:41:50.440Z,92.30
2018-12-10T13:51:54.620Z,92.20
2018-12-10T14:01:58.815Z,92.50
2018-12-10T14:12:03.176Z,92.10
2018-12-10T14:22:08.184Z,91.90
2018-12-10T14:32:12.331Z,91.60
2018-12-10T14:42:23.848Z,91.30
2018-12-10T14:52:27.931Z,90.80
2018-12-10T15:02:32.089Z,90.60
2018-12-10T15:12:36.241Z,91.00
2018-12-10T15:22:40.446Z,91.00
2018-12-10T15:32:44.502Z,91.50
2018-12-10T15:42:48.663Z,91.80
2018-12-10T15:52:52.770Z,91.60
2018-12-10T16:02:57.176Z,91.50
2018-12-10T16:13:01.410Z,91.20
2018-12-10T16:23:05.555Z,91.10
2018-12-10T16:33:09.866Z,90.80
2018-12-10T16:43:14.364Z,92.00
2018-12-10T16:53:18.560Z,93.30
2018-12-10T17:03:22.776Z,92.90
2018-12-10T17:13:26.970Z,93.80
2018-12-10T17:23:31.725Z,94.40
2018-12-10T17:33:35.975Z,94.30
2018-12-10T17:43:41.079Z,94.50
2018-12-10T17:53:45.561Z,94.80
2018-12-10T18:03:49.656Z,94.40
2018-12-10T18:13:53.923Z,94.50
2018-12-10T18:23:58.162Z,94.00
2018-12-10T18:34:02.498Z,93.00
2018-12-10T18:44:06.620Z,92.90
2018-12-10T18:54:10.841Z,93.10
2018-12-10T19:04:14.930Z,93.70
2018-12-10T19:14:19.218Z,94.40
2018-12-10T19:24:23.370Z,94.60
2018-12-10T19:34:27.712Z,94.70
2018-12-10T19:44:31.847Z,94.90
2018-12-10T19:54:35.993Z,95.60
2018-12-10T20:04:40.138Z,96.20
2018-12-10T20:14:44.333Z,95.20
2018-12-10T20:24:48.604Z,94.80
2018-12-10T20:34:52.950Z,94.80
2018-12-10T20:44:57.025Z,94.90
2018-12-10T20:55:01.237Z,95.70
2018-12-10T21:05:05.598Z,96.20
2018-12-10T21:15:09.998Z,96.70
2018-12-10T21:25:14.476Z,96.80
2018-12-10T21:35:18.598Z,96.50
2018-12-10T21:45:22.709Z,96.40
2018-12-10T21:55:27.486Z,96.10
2018-12-10T22:05:31.743Z,96.10
2018-12-10T22:15:35.899Z,95.90
2018-12-10T22:25:40.110Z,95.70
2018-12-10T22:35:44.286Z,95.30
2018-12-10T22:45:48.580Z,95.00
2018-12-10T22:55:52.687Z,94.80
2018-12-10T23:05:56.891Z,94.90
2018-12-10T23:16:01.279Z,94.60
2018-12-10T23:26:05.716Z,94.30
2018-12-10T23:36:10.166Z,94.20
2018-12-10T23:46:14.571Z,94.00
2018-12-10T23:56:18.768Z,93.90
